sensor_id;sensor_type;location;lat;lon;timestamp;pressure;altitude;pressure_sealevel;temperature;humidity
83191;BME280;73087;49.924;22.080;2024-02-23T00:00:47;97286.88;;;11.81;64.00
83191;BME280;73087;49.924;22.080;2024-02-23T00:01:48;97296.06;;;11.85;65.26
83191;BME280;73087;49.924;22.080;2024-02-23T00:02:48;97289.78;;;11.86;64.24
83191;BME280;73087;49.924;22.080;2024-02-23T00:03:49;97264.31;;;11.86;64.33
83191;BME280;73087;49.924;22.080;2024-02-23T00:04:49;97276.94;;;11.91;63.28
83191;BME280;73087;49.924;22.080;2024-02-23T00:05:50;97282.19;;;11.91;64.74
83191;BME280;73087;49.924;22.080;2024-02-23T00:06:50;97268.75;;;11.86;63.92
83191;BME280;73087;49.924;22.080;2024-02-23T00:07:51;97276.00;;;11.84;63.45
83191;BME280;73087;49.924;22.080;2024-02-23T00:08:52;97289.34;;;11.82;63.88
83191;BME280;73087;49.924;22.080;2024-02-23T00:09:52;97263.22;;;11.81;65.01
83191;BME280;73087;49.924;22.080;2024-02-23T00:10:53;97272.16;;;11.72;64.28
83191;BME280;73087;49.924;22.080;2024-02-23T00:11:53;97265.63;;;11.68;64.29
83191;BME280;73087;49.924;22.080;2024-02-23T00:12:54;97251.56;;;11.75;63.66
83191;BME280;73087;49.924;22.080;2024-02-23T00:13:54;97259.28;;;11.77;63.77
83191;BME280;73087;49.924;22.080;2024-02-23T00:14:56;97256.94;;;11.82;63.48
83191;BME280;73087;49.924;22.080;2024-02-23T00:15:57;97259.06;;;11.86;63.43
83191;BME280;73087;49.924;22.080;2024-02-23T00:16:58;97259.88;;;11.87;63.35
83191;BME280;73087;49.924;22.080;2024-02-23T00:17:58;97258.22;;;11.86;63.54
83191;BME280;73087;49.924;22.080;2024-02-23T00:18:59;97275.06;;;11.77;63.97
83191;BME280;73087;49.924;22.080;2024-02-23T00:19:59;97239.88;;;11.78;63.77
83191;BME280;73087;49.924;22.080;2024-02-23T00:21:00;97248.06;;;11.83;63.47
83191;BME280;73087;49.924;22.080;2024-02-23T00:22:00;97264.38;;;11.78;64.30
83191;BME280;73087;49.924;22.080;2024-02-23T00:23:01;97247.13;;;11.76;64.04
83191;BME280;73087;49.924;22.080;2024-02-23T00:24:02;97229.88;;;11.73;63.87
83191;BME280;73087;49.924;22.080;2024-02-23T00:25:03;97272.16;;;11.72;64.30
83191;BME280;73087;49.924;22.080;2024-02-23T00:26:03;97250.78;;;11.75;64.88
83191;BME280;73087;49.924;22.080;2024-02-23T00:27:04;97243.88;;;11.74;63.75
83191;BME280;73087;49.924;22.080;2024-02-23T00:28:05;97251.13;;;11.72;64.17
83191;BME280;73087;49.924;22.080;2024-02-23T00:29:06;97260.38;;;11.68;63.83
83191;BME280;73087;49.924;22.080;2024-02-23T00:30:08;97239.41;;;11.74;63.53
83191;BME280;73087;49.924;22.080;2024-02-23T00:31:09;97257.31;;;11.79;64.15
83191;BME280;73087;49.924;22.080;2024-02-23T00:32:10;97241.81;;;11.84;64.00
83191;BME280;73087;49.924;22.080;2024-02-23T00:33:10;97246.06;;;11.85;63.84
83191;BME280;73087;49.924;22.080;2024-02-23T00:34:11;97239.53;;;11.81;64.33
83191;BME280;73087;49.924;22.080;2024-02-23T00:35:12;97238.00;;;11.86;64.02
83191;BME280;73087;49.924;22.080;2024-02-23T00:36:12;97246.06;;;11.85;63.79
83191;BME280;73087;49.924;22.080;2024-02-23T00:37:13;97232.63;;;11.80;64.45
83191;BME280;73087;49.924;22.080;2024-02-23T00:38:13;97232.16;;;11.76;63.96
83191;BME280;73087;49.924;22.080;2024-02-23T00:39:14;97222.47;;;11.77;63.90
83191;BME280;73087;49.924;22.080;2024-02-23T00:40:15;97254.84;;;11.77;63.85
83191;BME280;73087;49.924;22.080;2024-02-23T00:41:15;97229.47;;;11.84;64.07
83191;BME280;73087;49.924;22.080;2024-02-23T00:42:16;97245.72;;;11.88;63.73
83191;BME280;73087;49.924;22.080;2024-02-23T00:43:18;97222.69;;;11.90;63.00
83191;BME280;73087;49.924;22.080;2024-02-23T00:44:19;97230.94;;;11.87;62.93
83191;BME280;73087;49.924;22.080;2024-02-23T00:45:21;97236.38;;;11.85;62.54
83191;BME280;73087;49.924;22.080;2024-02-23T00:46:21;97229.28;;;11.86;62.91
83191;BME280;73087;49.924;22.080;2024-02-23T00:47:22;97214.16;;;11.88;62.73
83191;BME280;73087;49.924;22.080;2024-02-23T00:48:22;97236.09;;;11.95;63.21
83191;BME280;73087;49.924;22.080;2024-02-23T00:49:23;97230.53;;;11.98;63.29
83191;BME280;73087;49.924;22.080;2024-02-23T00:50:23;97221.63;;;11.99;62.97
83191;BME280;73087;49.924;22.080;2024-02-23T00:51:24;97213.91;;;11.97;62.00
83191;BME280;73087;49.924;22.080;2024-02-23T00:52:25;97212.75;;;12.00;61.77
83191;BME280;73087;49.924;22.080;2024-02-23T00:53:25;97236.09;;;11.95;62.01
83191;BME280;73087;49.924;22.080;2024-02-23T00:54:26;97220.00;;;11.98;63.01
83191;BME280;73087;49.924;22.080;2024-02-23T00:55:26;97216.69;;;11.96;62.34
83191;BME280;73087;49.924;22.080;2024-02-23T00:56:27;97227.22;;;11.96;62.35
83191;BME280;73087;49.924;22.080;2024-02-23T00:57:27;97218.34;;;11.97;63.16
83191;BME280;73087;49.924;22.080;2024-02-23T00:58:28;97227.22;;;11.96;62.97
83191;BME280;73087;49.924;22.080;2024-02-23T00:59:29;97213.44;;;11.94;63.01
83191;BME280;73087;49.924;22.080;2024-02-23T01:00:31;97212.97;;;11.90;63.11
83191;BME280;73087;49.924;22.080;2024-02-23T01:01:32;97209.81;;;11.95;63.04
83191;BME280;73087;49.924;22.080;2024-02-23T01:02:32;97206.16;;;11.96;62.17
83191;BME280;73087;49.924;22.080;2024-02-23T01:03:33;97211.09;;;11.99;62.25
83191;BME280;73087;49.924;22.080;2024-02-23T01:04:33;97205.84;;;11.99;61.76
83191;BME280;73087;49.924;22.080;2024-02-23T01:05:34;97205.84;;;11.99;61.99
83191;BME280;73087;49.924;22.080;2024-02-23T01:06:34;97199.28;;;11.95;61.41
83191;BME280;73087;49.924;22.080;2024-02-23T01:07:35;97195.66;;;11.96;62.78
83191;BME280;73087;49.924;22.080;2024-02-23T01:08:35;97202.22;;;12.00;61.98
83191;BME280;73087;49.924;22.080;2024-02-23T01:09:36;97200.56;;;11.99;63.05
83191;BME280;73087;49.924;22.080;2024-02-23T01:10:36;97196.59;;;12.03;61.49
83191;BME280;73087;49.924;22.080;2024-02-23T01:11:37;97222.19;;;12.09;62.75
83191;BME280;73087;49.924;22.080;2024-02-23T01:12:38;97220.53;;;12.08;62.32
83191;BME280;73087;49.924;22.080;2024-02-23T01:13:38;97218.91;;;12.07;61.71
83191;BME280;73087;49.924;22.080;2024-02-23T01:14:39;97224.53;;;12.04;62.87
83191;BME280;73087;49.924;22.080;2024-02-23T01:15:41;97217.28;;;12.06;62.30
83191;BME280;73087;49.924;22.080;2024-02-23T01:16:41;97224.53;;;12.04;62.37
83191;BME280;73087;49.924;22.080;2024-02-23T01:17:42;97196.88;;;12.08;61.74
83191;BME280;73087;49.924;22.080;2024-02-23T01:18:42;97221.81;;;12.12;61.37
83191;BME280;73087;49.924;22.080;2024-02-23T01:19:43;97206.38;;;12.09;61.67
83191;BME280;73087;49.924;22.080;2024-02-23T01:20:44;97233.63;;;12.16;61.36
83191;BME280;73087;49.924;22.080;2024-02-23T01:21:44;97231.63;;;12.18;61.75
83191;BME280;73087;49.924;22.080;2024-02-23T01:22:45;97199.69;;;12.21;61.92
83191;BME280;73087;49.924;22.080;2024-02-23T01:23:45;97209.75;;;12.17;61.26
83191;BME280;73087;49.924;22.080;2024-02-23T01:24:46;97219.81;;;12.14;61.91
83191;BME280;73087;49.924;22.080;2024-02-23T01:25:46;97204.03;;;12.14;60.85
83191;BME280;73087;49.924;22.080;2024-02-23T01:26:47;97200.41;;;12.15;61.97
83191;BME280;73087;49.924;22.080;2024-02-23T01:27:47;97210.56;;;12.18;60.89
83191;BME280;73087;49.924;22.080;2024-02-23T01:28:48;97205.66;;;12.15;60.90
83191;BME280;73087;49.924;22.080;2024-02-23T01:29:48;97189.25;;;12.13;61.09
83191;BME280;73087;49.924;22.080;2024-02-23T01:30:50;97202.75;;;12.10;62.29
83191;BME280;73087;49.924;22.080;2024-02-23T01:31:51;97195.88;;;12.09;61.83
83191;BME280;73087;49.924;22.080;2024-02-23T01:32:52;97208.03;;;12.10;61.01
83191;BME280;73087;49.924;22.080;2024-02-23T01:33:52;97203.22;;;12.13;60.83
83191;BME280;73087;49.924;22.080;2024-02-23T01:34:53;97207.66;;;12.13;62.73
83191;BME280;73087;49.924;22.080;2024-02-23T01:35:53;97210.94;;;12.15;61.59
83191;BME280;73087;49.924;22.080;2024-02-23T01:36:54;97202.66;;;12.18;61.07
83191;BME280;73087;49.924;22.080;2024-02-23T01:37:54;97200.41;;;12.15;61.86
83191;BME280;73087;49.924;22.080;2024-02-23T01:38:55;97201.66;;;12.19;62.06
83191;BME280;73087;49.924;22.080;2024-02-23T01:39:55;97182.97;;;12.14;61.93
83191;BME280;73087;49.924;22.080;2024-02-23T01:40:56;97202.94;;;12.23;60.71
83191;BME280;73087;49.924;22.080;2024-02-23T01:41:57;97187.88;;;12.17;60.21
83191;BME280;73087;49.924;22.080;2024-02-23T01:43:01;97209.84;;;12.24;60.04
83191;BME280;73087;49.924;22.080;2024-02-23T01:44:02;97198.03;;;12.20;60.31
83191;BME280;73087;49.924;22.080;2024-02-23T01:45:03;97187.88;;;12.17;61.58
83191;BME280;73087;49.924;22.080;2024-02-23T01:46:05;97202.03;;;12.16;60.90
83191;BME280;73087;49.924;22.080;2024-02-23T01:47:06;97182.25;;;12.20;61.97
83191;BME280;73087;49.924;22.080;2024-02-23T01:48:07;97196.41;;;12.19;60.64
83191;BME280;73087;49.924;22.080;2024-02-23T01:49:08;97179.25;;;12.23;61.56
83191;BME280;73087;49.924;22.080;2024-02-23T01:50:09;97213.41;;;12.16;60.61
83191;BME280;73087;49.924;22.080;2024-02-23T01:51:10;97185.06;;;12.18;61.82
83191;BME280;73087;49.924;22.080;2024-02-23T01:52:11;97188.72;;;12.17;61.71
83191;BME280;73087;49.924;22.080;2024-02-23T01:53:13;97182.25;;;12.20;60.43
83191;BME280;73087;49.924;22.080;2024-02-23T01:54:14;97178.97;;;12.18;61.09
83191;BME280;73087;49.924;22.080;2024-02-23T01:55:15;97182.63;;;12.17;61.51
83191;BME280;73087;49.924;22.080;2024-02-23T01:56:16;97201.41;;;12.14;60.25
83191;BME280;73087;49.924;22.080;2024-02-23T01:57:17;97190.50;;;12.17;62.03
83191;BME280;73087;49.924;22.080;2024-02-23T01:58:18;97189.16;;;12.21;61.23
83191;BME280;73087;49.924;22.080;2024-02-23T01:59:19;97201.66;;;12.19;61.32
83191;BME280;73087;49.924;22.080;2024-02-23T02:00:20;97182.97;;;12.14;61.04
83191;BME280;73087;49.924;22.080;2024-02-23T02:01:22;97180.63;;;12.19;60.71
83191;BME280;73087;49.924;22.080;2024-02-23T02:02:22;97191.16;;;12.19;60.77
83191;BME280;73087;49.924;22.080;2024-02-23T02:03:23;97183.97;;;12.13;60.86
83191;BME280;73087;49.924;22.080;2024-02-23T02:04:24;97193.88;;;12.11;60.97
83191;BME280;73087;49.924;22.080;2024-02-23T02:05:24;97196.41;;;12.19;60.44
83191;BME280;73087;49.924;22.080;2024-02-23T02:06:25;97192.41;;;12.23;60.02
83191;BME280;73087;49.924;22.080;2024-02-23T02:07:26;97195.69;;;12.25;61.30
83191;BME280;73087;49.924;22.080;2024-02-23T02:08:26;97185.88;;;12.19;61.55
83191;BME280;73087;49.924;22.080;2024-02-23T02:09:27;97193.13;;;12.17;60.73
83191;BME280;73087;49.924;22.080;2024-02-23T02:10:27;97184.59;;;12.15;61.69
83191;BME280;73087;49.924;22.080;2024-02-23T02:11:28;97191.88;;;12.13;60.58
83191;BME280;73087;49.924;22.080;2024-02-23T02:12:29;97195.50;;;12.12;61.62
83191;BME280;73087;49.924;22.080;2024-02-23T02:13:30;97208.13;;;12.16;60.22
83191;BME280;73087;49.924;22.080;2024-02-23T02:14:30;97206.94;;;12.19;60.10
83191;BME280;73087;49.924;22.080;2024-02-23T02:15:31;97251.03;;;12.17;59.54
83191;BME280;73087;49.924;22.080;2024-02-23T02:16:33;97200.25;;;12.31;60.48
83191;BME280;73087;49.924;22.080;2024-02-23T02:17:33;97200.56;;;12.27;60.38
83191;BME280;73087;49.924;22.080;2024-02-23T02:18:34;97198.94;;;12.27;60.32
83191;BME280;73087;49.924;22.080;2024-02-23T02:19:35;97196.69;;;12.24;61.26
83191;BME280;73087;49.924;22.080;2024-02-23T02:20:36;97218.03;;;12.29;60.57
83191;BME280;73087;49.924;22.080;2024-02-23T02:21:37;97192.63;;;12.35;60.44
83191;BME280;73087;49.924;22.080;2024-02-23T02:22:37;97221.31;;;12.31;61.12
83191;BME280;73087;49.924;22.080;2024-02-23T02:23:38;97210.41;;;12.33;60.04
83191;BME280;73087;49.924;22.080;2024-02-23T02:24:39;97197.88;;;12.35;59.89
83191;BME280;73087;49.924;22.080;2024-02-23T02:25:39;97203.03;;;12.29;59.34
83191;BME280;73087;49.924;22.080;2024-02-23T02:26:40;97204.22;;;12.27;60.01
83191;BME280;73087;49.924;22.080;2024-02-23T02:27:40;97197.69;;;12.23;61.04
83191;BME280;73087;49.924;22.080;2024-02-23T02:28:41;97206.94;;;12.19;61.08
83191;BME280;73087;49.924;22.080;2024-02-23T02:29:41;97206.22;;;12.25;60.97
83191;BME280;73087;49.924;22.080;2024-02-23T02:30:42;97201.78;;;12.25;60.98
83191;BME280;73087;49.924;22.080;2024-02-23T02:31:44;97203.31;;;12.20;60.84
83191;BME280;73087;49.924;22.080;2024-02-23T02:32:45;97212.19;;;12.19;59.89
83191;BME280;73087;49.924;22.080;2024-02-23T02:33:45;97231.28;;;12.35;59.00
83191;BME280;73087;49.924;22.080;2024-02-23T02:34:46;97218.94;;;12.35;59.40
83191;BME280;73087;49.924;22.080;2024-02-23T02:35:46;97216.94;;;12.37;60.47
83191;BME280;73087;49.924;22.080;2024-02-23T02:36:47;97205.50;;;12.31;60.58
83191;BME280;73087;49.924;22.080;2024-02-23T02:37:47;97212.78;;;12.29;60.23
83191;BME280;73087;49.924;22.080;2024-02-23T02:38:48;97209.47;;;12.27;59.51
83191;BME280;73087;49.924;22.080;2024-02-23T02:39:49;97224.56;;;12.32;59.37
83191;BME280;73087;49.924;22.080;2024-02-23T02:40:49;97221.75;;;12.34;59.90
83191;BME280;73087;49.924;22.080;2024-02-23T02:41:50;97244.00;;;12.32;60.83
83191;BME280;73087;49.924;22.080;2024-02-23T02:42:50;97223.31;;;12.29;58.77
83191;BME280;73087;49.924;22.080;2024-02-23T02:43:51;97223.63;;;12.26;59.19
83191;BME280;73087;49.924;22.080;2024-02-23T02:44:51;97222.38;;;12.22;61.02
83191;BME280;73087;49.924;22.080;2024-02-23T02:45:52;97222.72;;;12.19;60.56
83191;BME280;73087;49.924;22.080;2024-02-23T02:46:54;97228.34;;;12.16;60.86
83191;BME280;73087;49.924;22.080;2024-02-23T02:47:54;97228.00;;;12.19;60.69
83191;BME280;73087;49.924;22.080;2024-02-23T02:48:55;97228.81;;;12.19;60.40
83191;BME280;73087;49.924;22.080;2024-02-23T02:49:55;97220.72;;;12.21;60.83
83191;BME280;73087;49.924;22.080;2024-02-23T02:50:56;97226.34;;;12.18;60.60
83191;BME280;73087;49.924;22.080;2024-02-23T02:51:56;97210.56;;;12.18;60.82
83191;BME280;73087;49.924;22.080;2024-02-23T02:52:57;97235.63;;;12.14;61.06
83191;BME280;73087;49.924;22.080;2024-02-23T02:53:57;97203.66;;;12.17;59.87
83191;BME280;73087;49.924;22.080;2024-02-23T02:54:58;97228.72;;;12.13;60.59
83191;BME280;73087;49.924;22.080;2024-02-23T02:55:59;97222.81;;;12.11;60.14
83191;BME280;73087;49.924;22.080;2024-02-23T02:56:59;97230.97;;;12.16;59.78
83191;BME280;73087;49.924;22.080;2024-02-23T02:58:00;97224.72;;;12.17;59.53
83191;BME280;73087;49.924;22.080;2024-02-23T02:59:00;97232.25;;;12.20;59.92
83191;BME280;73087;49.924;22.080;2024-02-23T03:00:01;97208.22;;;12.23;59.49
83191;BME280;73087;49.924;22.080;2024-02-23T03:01:02;97217.38;;;12.27;60.15
83191;BME280;73087;49.924;22.080;2024-02-23T03:02:04;97235.47;;;12.30;59.87
83191;BME280;73087;49.924;22.080;2024-02-23T03:03:05;97171.19;;;12.10;58.90
83191;BME280;73087;49.924;22.080;2024-02-23T03:04:06;97207.50;;;12.29;60.19
83191;BME280;73087;49.924;22.080;2024-02-23T03:05:07;97218.66;;;12.31;58.77
83191;BME280;73087;49.924;22.080;2024-02-23T03:06:07;97237.44;;;12.27;59.56
83191;BME280;73087;49.924;22.080;2024-02-23T03:07:08;97207.50;;;12.29;58.74
83191;BME280;73087;49.924;22.080;2024-02-23T03:08:08;97218.03;;;12.29;59.14
83191;BME280;73087;49.924;22.080;2024-02-23T03:09:09;97217.69;;;12.32;59.98
83191;BME280;73087;49.924;22.080;2024-02-23T03:10:10;97209.47;;;12.27;58.63
83191;BME280;73087;49.924;22.080;2024-02-23T03:11:10;97216.75;;;12.25;59.74
83191;BME280;73087;49.924;22.080;2024-02-23T03:12:11;97220.72;;;12.21;59.44
83191;BME280;73087;49.924;22.080;2024-02-23T03:13:11;97232.91;;;12.22;60.30
83191;BME280;73087;49.924;22.080;2024-02-23T03:14:12;97216.66;;;12.18;60.33
83191;BME280;73087;49.924;22.080;2024-02-23T03:15:12;97194.22;;;12.08;60.17
83191;BME280;73087;49.924;22.080;2024-02-23T03:16:14;97228.00;;;12.19;60.20
83191;BME280;73087;49.924;22.080;2024-02-23T03:17:16;97222.00;;;12.25;58.69
83191;BME280;73087;49.924;22.080;2024-02-23T03:18:17;97231.25;;;12.21;60.19
83191;BME280;73087;49.924;22.080;2024-02-23T03:19:18;97214.31;;;12.23;60.06
83191;BME280;73087;49.924;22.080;2024-02-23T03:20:18;97229.25;;;12.23;60.02
83191;BME280;73087;49.924;22.080;2024-02-23T03:21:19;97218.38;;;12.26;58.73
83191;BME280;73087;49.924;22.080;2024-02-23T03:22:19;97225.00;;;12.22;59.66
83191;BME280;73087;49.924;22.080;2024-02-23T03:23:20;97234.53;;;12.23;59.13
83191;BME280;73087;49.924;22.080;2024-02-23T03:24:20;97210.84;;;12.23;59.97
83191;BME280;73087;49.924;22.080;2024-02-23T03:25:21;97250.31;;;12.23;58.57
83191;BME280;73087;49.924;22.080;2024-02-23T03:26:22;97245.53;;;12.26;60.17
83191;BME280;73087;49.924;22.080;2024-02-23T03:27:28;97222.00;;;12.25;59.66
83191;BME280;73087;49.924;22.080;2024-02-23T03:28:29;97213.84;;;12.20;58.85
83191;BME280;73087;49.924;22.080;2024-02-23T03:29:29;97224.38;;;12.20;59.78
83191;BME280;73087;49.924;22.080;2024-02-23T03:30:30;97236.53;;;12.21;59.65
83191;BME280;73087;49.924;22.080;2024-02-23T03:31:30;97230.00;;;12.17;60.38
83191;BME280;73087;49.924;22.080;2024-02-23T03:32:32;97236.88;;;12.18;60.01
83191;BME280;73087;49.924;22.080;2024-02-23T03:33:33;97245.78;;;12.17;59.94
83191;BME280;73087;49.924;22.080;2024-02-23T03:34:34;97233.25;;;12.19;59.79
83191;BME280;73087;49.924;22.080;2024-02-23T03:35:34;97240.88;;;12.14;59.48
83191;BME280;73087;49.924;22.080;2024-02-23T03:36:36;97240.88;;;12.14;59.79
83191;BME280;73087;49.924;22.080;2024-02-23T03:37:37;97231.63;;;12.18;60.63
83191;BME280;73087;49.924;22.080;2024-02-23T03:38:37;97237.25;;;12.15;60.07
83191;BME280;73087;49.924;22.080;2024-02-23T03:39:38;97243.78;;;12.19;60.68
83191;BME280;73087;49.924;22.080;2024-02-23T03:40:38;97238.53;;;12.19;59.64
83191;BME280;73087;49.924;22.080;2024-02-23T03:41:39;97247.78;;;12.15;59.72
83191;BME280;73087;49.924;22.080;2024-02-23T03:42:39;97239.88;;;12.15;59.57
83191;BME280;73087;49.924;22.080;2024-02-23T03:43:40;97245.66;;;12.10;59.20
83191;BME280;73087;49.924;22.080;2024-02-23T03:44:40;97241.59;;;12.08;60.74
83191;BME280;73087;49.924;22.080;2024-02-23T03:45:41;97242.22;;;12.10;60.73
83191;BME280;73087;49.924;22.080;2024-02-23T03:46:41;97237.25;;;12.15;60.17
83191;BME280;73087;49.924;22.080;2024-02-23T03:47:43;97246.50;;;12.11;60.05
83191;BME280;73087;49.924;22.080;2024-02-23T03:48:45;97249.78;;;12.13;60.74
83191;BME280;73087;49.924;22.080;2024-02-23T03:49:45;97246.88;;;12.08;60.89
83191;BME280;73087;49.924;22.080;2024-02-23T03:50:46;97248.50;;;12.09;60.28
83191;BME280;73087;49.924;22.080;2024-02-23T03:51:47;97251.66;;;12.04;60.79
83191;BME280;73087;49.924;22.080;2024-02-23T03:52:48;97255.75;;;12.07;60.46
83191;BME280;73087;49.924;22.080;2024-02-23T03:53:48;97267.56;;;12.11;59.52
83191;BME280;73087;49.924;22.080;2024-02-23T03:54:49;97247.78;;;12.15;60.64
83191;BME280;73087;49.924;22.080;2024-02-23T03:55:49;97244.50;;;12.13;59.59
83191;BME280;73087;49.924;22.080;2024-02-23T03:56:50;97224.91;;;12.01;60.25
83191;BME280;73087;49.924;22.080;2024-02-23T03:57:50;97256.31;;;12.17;59.42
83191;BME280;73087;49.924;22.080;2024-02-23T03:58:51;97248.13;;;12.12;59.95
83191;BME280;73087;49.924;22.080;2024-02-23T03:59:52;97258.66;;;12.12;59.38
83191;BME280;73087;49.924;22.080;2024-02-23T04:00:52;97251.41;;;12.14;60.20
83191;BME280;73087;49.924;22.080;2024-02-23T04:01:53;97248.84;;;12.06;60.48
83191;BME280;73087;49.924;22.080;2024-02-23T04:02:55;97262.38;;;12.03;60.75
83191;BME280;73087;49.924;22.080;2024-02-23T04:03:55;97239.06;;;12.00;60.88
83191;BME280;73087;49.924;22.080;2024-02-23T04:04:56;97267.16;;;11.99;60.57
83191;BME280;73087;49.924;22.080;2024-02-23T04:05:56;97251.22;;;12.01;59.64
83191;BME280;73087;49.924;22.080;2024-02-23T04:06:57;97256.84;;;11.98;61.22
83191;BME280;73087;49.924;22.080;2024-02-23T04:07:58;97259.16;;;11.93;60.11
83191;BME280;73087;49.924;22.080;2024-02-23T04:08:58;97266.88;;;11.94;59.76
83191;BME280;73087;49.924;22.080;2024-02-23T04:09:59;97250.75;;;11.97;60.57
83191;BME280;73087;49.924;22.080;2024-02-23T04:10:59;97255.53;;;11.94;61.00
83191;BME280;73087;49.924;22.080;2024-02-23T04:12:00;97268.03;;;11.92;60.46
83191;BME280;73087;49.924;22.080;2024-02-23T04:13:01;97253.25;;;11.91;61.39
83191;BME280;73087;49.924;22.080;2024-02-23T04:14:01;97243.50;;;11.77;61.59
83191;BME280;73087;49.924;22.080;2024-02-23T04:15:02;97255.88;;;11.91;61.83
83191;BME280;73087;49.924;22.080;2024-02-23T04:16:03;97261.84;;;11.85;61.91
83191;BME280;73087;49.924;22.080;2024-02-23T04:17:04;97252.63;;;11.89;60.95
83191;BME280;73087;49.924;22.080;2024-02-23T04:18:06;97253.31;;;11.83;62.14
83191;BME280;73087;49.924;22.080;2024-02-23T04:19:07;97247.69;;;11.86;62.35
83191;BME280;73087;49.924;22.080;2024-02-23T04:20:08;97257.78;;;11.82;61.53
83191;BME280;73087;49.924;22.080;2024-02-23T04:21:09;97252.97;;;11.86;61.75
83191;BME280;73087;49.924;22.080;2024-02-23T04:22:09;97257.06;;;11.88;61.45
83191;BME280;73087;49.924;22.080;2024-02-23T04:23:10;97264.84;;;11.82;61.61
83191;BME280;73087;49.924;22.080;2024-02-23T04:24:11;97287.53;;;11.83;62.49
83191;BME280;73087;49.924;22.080;2024-02-23T04:25:12;97260.50;;;11.89;62.14
83191;BME280;73087;49.924;22.080;2024-02-23T04:26:13;97252.97;;;11.86;61.56
83191;BME280;73087;49.924;22.080;2024-02-23T04:27:14;97250.88;;;11.81;62.53
83191;BME280;73087;49.924;22.080;2024-02-23T04:28:14;97251.13;;;11.72;62.69
83191;BME280;73087;49.924;22.080;2024-02-23T04:29:15;97252.41;;;11.76;62.80
83191;BME280;73087;49.924;22.080;2024-02-23T04:30:16;97253.13;;;11.70;62.13
83191;BME280;73087;49.924;22.080;2024-02-23T04:31:16;97263.63;;;11.70;62.38
83191;BME280;73087;49.924;22.080;2024-02-23T04:32:17;97247.84;;;11.70;63.11
83191;BME280;73087;49.924;22.080;2024-02-23T04:33:19;97250.66;;;11.68;62.91
83191;BME280;73087;49.924;22.080;2024-02-23T04:34:19;97226.44;;;11.50;63.46
83191;BME280;73087;49.924;22.080;2024-02-23T04:35:20;97259.06;;;11.64;62.59
83191;BME280;73087;49.924;22.080;2024-02-23T04:36:20;97252.50;;;11.60;62.85
83191;BME280;73087;49.924;22.080;2024-02-23T04:37:21;97245.25;;;11.62;63.38
83191;BME280;73087;49.924;22.080;2024-02-23T04:38:21;97257.09;;;11.66;62.15
83191;BME280;73087;49.924;22.080;2024-02-23T04:39:22;97241.31;;;11.66;63.17
83191;BME280;73087;49.924;22.080;2024-02-23T04:40:22;97253.13;;;11.70;62.72
83191;BME280;73087;49.924;22.080;2024-02-23T04:41:23;97246.56;;;11.66;63.28
83191;BME280;73087;49.924;22.080;2024-02-23T04:42:23;97269.47;;;11.57;63.53
83191;BME280;73087;49.924;22.080;2024-02-23T04:43:24;97233.47;;;11.58;63.13
83191;BME280;73087;49.924;22.080;2024-02-23T04:44:25;97249.25;;;11.58;63.23
83191;BME280;73087;49.924;22.080;2024-02-23T04:45:26;97227.50;;;11.64;63.02
83191;BME280;73087;49.924;22.080;2024-02-23T04:46:26;97249.72;;;11.61;63.58
83191;BME280;73087;49.924;22.080;2024-02-23T04:47:27;97249.88;;;11.60;63.20
83191;BME280;73087;49.924;22.080;2024-02-23T04:48:29;97249.25;;;11.58;64.16
83191;BME280;73087;49.924;22.080;2024-02-23T04:49:29;97271.56;;;11.62;62.90
83191;BME280;73087;49.924;22.080;2024-02-23T04:50:30;97242.94;;;11.67;63.54
83191;BME280;73087;49.924;22.080;2024-02-23T04:51:30;97268.88;;;11.70;63.39
83191;BME280;73087;49.924;22.080;2024-02-23T04:52:31;97246.22;;;11.69;63.08
83191;BME280;73087;49.924;22.080;2024-02-23T04:53:31;97241.94;;;11.68;62.96
83191;BME280;73087;49.924;22.080;2024-02-23T04:54:36;97244.59;;;11.68;63.14
83191;BME280;73087;49.924;22.080;2024-02-23T04:55:36;97242.94;;;11.67;63.09
83191;BME280;73087;49.924;22.080;2024-02-23T04:56:37;97245.38;;;11.68;63.45
83191;BME280;73087;49.924;22.080;2024-02-23T04:57:37;97236.84;;;11.66;63.71
83191;BME280;73087;49.924;22.080;2024-02-23T04:58:38;97245.63;;;11.59;63.80
83191;BME280;73087;49.924;22.080;2024-02-23T04:59:38;97250.22;;;11.57;63.76
83191;BME280;73087;49.924;22.080;2024-02-23T05:00:39;97245.97;;;11.56;64.50
83191;BME280;73087;49.924;22.080;2024-02-23T05:01:39;97252.88;;;11.57;63.37
83191;BME280;73087;49.924;22.080;2024-02-23T05:02:40;97246.59;;;11.58;64.15
83191;BME280;73087;49.924;22.080;2024-02-23T05:03:42;97238.72;;;11.58;64.68
83191;BME280;73087;49.924;22.080;2024-02-23T05:04:42;97235.09;;;11.59;64.31
83191;BME280;73087;49.924;22.080;2024-02-23T05:05:43;97237.38;;;11.62;63.57
83191;BME280;73087;49.924;22.080;2024-02-23T05:06:43;97249.25;;;11.58;64.30
83191;BME280;73087;49.924;22.080;2024-02-23T05:07:44;97255.16;;;11.52;63.93
83191;BME280;73087;49.924;22.080;2024-02-23T05:08:45;97272.25;;;11.56;64.33
83191;BME280;73087;49.924;22.080;2024-02-23T05:09:45;97236.38;;;11.63;63.47
83191;BME280;73087;49.924;22.080;2024-02-23T05:10:46;97247.25;;;11.60;63.67
83191;BME280;73087;49.924;22.080;2024-02-23T05:11:46;97256.63;;;11.62;63.72
83191;BME280;73087;49.924;22.080;2024-02-23T05:12:47;97223.28;;;11.55;62.83
83191;BME280;73087;49.924;22.080;2024-02-23T05:13:47;97236.72;;;11.60;64.66
83191;BME280;73087;49.924;22.080;2024-02-23T05:14:48;97250.44;;;11.55;64.56
83191;BME280;73087;49.924;22.080;2024-02-23T05:15:48;97242.00;;;11.60;64.55
83191;BME280;73087;49.924;22.080;2024-02-23T05:16:49;97243.97;;;11.58;64.83
83191;BME280;73087;49.924;22.080;2024-02-23T05:17:49;97249.25;;;11.58;64.83